Time;durP1;ratioP1;P1;durP2;ratioP2;P2;SDS_P1;SDS_P2;PMS_P1;PMS_P2;Temp;Humidity;BMP_temperature;BMP_pressure;BME280_temperature;BME280_humidity;BME280_pressure;Samples;Min_cycle;Max_cycle;Signal;HPM_P1;HPM_P2
2022/03/26 00:02:05;;;;;;;;;25.50;21.75;;;;;-146.03;100.00;60875.16;4969928;28;45499;-79
2022/03/26 00:04:32;;;;;;;;;54.50;43.50;;;;;-146.03;100.00;60875.16;4972775;28;45522;-81
2022/03/26 00:06:57;;;;;;;;;52.75;41.50;;;;;-146.03;100.00;60875.16;4970312;28;45714;-81
2022/03/26 00:09:22;;;;;;;;;51.75;40.50;;;;;-146.03;100.00;60875.16;4972000;28;45453;-81
2022/03/26 00:11:48;;;;;;;;;56.00;45.00;;;;;-146.03;100.00;60875.16;4970295;28;45383;-81
2022/03/26 00:14:13;;;;;;;;;55.25;45.00;;;;;-146.03;100.00;60875.16;4979370;28;45549;-81
2022/03/26 00:16:38;;;;;;;;;53.50;41.00;;;;;-146.03;100.00;60875.16;4972787;28;45437;-82
2022/03/26 00:19:04;;;;;;;;;56.00;43.00;;;;;-146.03;100.00;60875.16;4970302;28;45498;-80
2022/03/26 00:21:30;;;;;;;;;56.50;43.25;;;;;-146.03;100.00;60875.16;4972774;28;45490;-81
2022/03/26 00:23:55;;;;;;;;;57.75;44.25;;;;;-146.03;100.00;60875.16;4970376;28;45424;-80
2022/03/26 00:26:20;;;;;;;;;51.25;42.00;;;;;-146.03;100.00;60875.16;4973388;28;45415;-81
2022/03/26 00:28:46;;;;;;;;;46.75;38.25;;;;;-146.03;100.00;60875.16;4971865;28;45375;-80
2022/03/26 00:31:12;;;;;;;;;53.75;42.50;;;;;-146.03;100.00;60875.16;4971919;28;45272;-81
2022/03/26 00:33:38;;;;;;;;;56.25;43.25;;;;;-146.03;100.00;60875.16;4970423;28;45462;-79
2022/03/26 00:36:03;;;;;;;;;56.75;44.75;;;;;-146.03;100.00;60875.16;4968785;28;46378;-81
2022/03/26 00:38:29;;;;;;;;;50.00;40.00;;;;;-146.03;100.00;60875.16;4971559;28;45426;-81
2022/03/26 00:40:54;;;;;;;;;53.75;42.50;;;;;-146.03;100.00;60875.16;4972664;28;45511;-80
2022/03/26 00:43:19;;;;;;;;;54.25;43.50;;;;;-146.03;100.00;60875.16;4972431;28;45265;-80
2022/03/26 00:45:45;;;;;;;;;52.50;42.50;;;;;-146.03;100.00;60875.16;4970802;28;48989;-80
2022/03/26 00:48:10;;;;;;;;;54.25;43.75;;;;;-146.03;100.00;60875.16;4969386;28;46024;-81
2022/03/26 00:50:35;;;;;;;;;54.25;45.25;;;;;-146.03;100.00;60875.16;4969975;28;45406;-79
2022/03/26 00:53:01;;;;;;;;;55.50;43.00;;;;;-146.03;100.00;60875.16;4970991;28;46653;-80
2022/03/26 00:55:26;;;;;;;;;58.00;44.75;;;;;-146.03;100.00;60875.16;4972127;28;45311;-81
2022/03/26 00:57:52;;;;;;;;;53.50;41.50;;;;;-146.03;100.00;60875.16;4970344;28;45631;-80
2022/03/26 01:00:17;;;;;;;;;55.75;44.50;;;;;-146.03;100.00;60875.16;4968918;28;45419;-80
2022/03/26 01:02:43;;;;;;;;;53.25;43.75;;;;;-146.03;100.00;60875.16;4970342;28;45458;-80
2022/03/26 01:05:10;;;;;;;;;57.75;43.25;;;;;-146.03;100.00;60875.16;4971558;28;46248;-80
2022/03/26 01:07:36;;;;;;;;;52.75;42.00;;;;;-146.03;100.00;60875.16;4968561;28;45975;-81
2022/03/26 01:10:04;;;;;;;;;55.00;44.50;;;;;-146.03;100.00;60875.16;4968562;28;45319;-80
2022/03/26 01:12:30;;;;;;;;;58.50;46.00;;;;;-146.03;100.00;60875.16;4971827;28;45640;-80
2022/03/26 01:14:56;;;;;;;;;57.00;44.50;;;;;-146.03;100.00;60875.16;4972601;28;46861;-80
2022/03/26 01:17:21;;;;;;;;;58.50;45.25;;;;;-146.03;100.00;60875.16;4972640;28;45395;-80
2022/03/26 01:19:47;;;;;;;;;58.00;47.25;;;;;-146.03;100.00;60875.16;4967335;28;45568;-80
2022/03/26 01:22:12;;;;;;;;;53.50;43.00;;;;;-146.03;100.00;60875.16;4968437;28;45570;-81
2022/03/26 01:24:38;;;;;;;;;51.75;41.75;;;;;-146.03;100.00;60875.16;4973170;28;46323;-81
2022/03/26 01:27:03;;;;;;;;;60.25;46.25;;;;;-146.03;100.00;60875.16;4969100;28;45430;-81
2022/03/26 01:29:29;;;;;;;;;53.75;44.00;;;;;-146.03;100.00;60875.16;4969967;28;45378;-81
2022/03/26 01:31:54;;;;;;;;;56.25;43.00;;;;;-146.03;100.00;60875.16;4971522;28;45470;-80
2022/03/26 01:34:22;;;;;;;;;57.50;44.25;;;;;-146.03;100.00;60875.16;4972996;28;46080;-80
2022/03/26 01:36:48;;;;;;;;;56.25;44.75;;;;;-146.03;100.00;60875.16;4971411;28;45829;-80
2022/03/26 01:39:13;;;;;;;;;58.50;45.50;;;;;-146.03;100.00;60875.16;4972159;28;45439;-79
2022/03/26 01:41:39;;;;;;;;;57.00;44.75;;;;;-146.03;100.00;60875.16;4969098;28;45463;-80
2022/03/26 01:44:04;;;;;;;;;51.75;42.25;;;;;-146.03;100.00;60875.16;4958828;28;48430;-80
2022/03/26 01:46:50;;;;;;;;;56.00;43.00;;;;;-146.03;100.00;60875.16;4972955;28;45409;-81
2022/03/26 01:49:16;;;;;;;;;57.00;46.50;;;;;-146.03;100.00;60875.16;4967708;28;45379;-80
2022/03/26 01:51:42;;;;;;;;;59.50;47.25;;;;;-146.03;100.00;60875.16;4967893;28;45286;-81
2022/03/26 01:54:08;;;;;;;;;53.25;45.00;;;;;-146.03;100.00;60875.16;4968105;28;45558;-81
2022/03/26 01:56:35;;;;;;;;;54.75;45.75;;;;;-146.03;100.00;60875.16;4962743;28;45505;-79
2022/03/26 01:59:01;;;;;;;;;56.25;45.25;;;;;-146.03;100.00;60875.16;4964893;28;46016;-80
2022/03/26 02:01:26;;;;;;;;;54.50;43.25;;;;;-146.03;100.00;60875.16;4967123;28;45466;-82
2022/03/26 02:03:51;;;;;;;;;56.75;44.50;;;;;-146.03;100.00;60875.16;4967194;28;45352;-81
2022/03/26 02:06:19;;;;;;;;;49.50;40.75;;;;;-146.03;100.00;60875.16;4965279;28;50958;-81
2022/03/26 02:08:45;;;;;;;;;52.00;42.25;;;;;-146.03;100.00;60875.16;4971134;28;45665;-81
2022/03/26 02:11:11;;;;;;;;;50.50;41.75;;;;;-146.03;100.00;60875.16;4969094;28;45386;-80
2022/03/26 02:13:53;;;;;;;;;54.25;44.50;;;;;-146.03;100.00;60875.16;4970108;28;46644;-80
2022/03/26 02:16:20;;;;;;;;;57.50;43.50;;;;;-146.03;100.00;60875.16;4964604;28;45784;-81
2022/03/26 02:18:46;;;;;;;;;50.25;43.00;;;;;-146.03;100.00;60875.16;4963420;28;45553;-80
2022/03/26 02:21:11;;;;;;;;;55.00;40.25;;;;;-146.03;100.00;60875.16;4969394;28;45395;-80
2022/03/26 02:23:37;;;;;;;;;56.25;46.00;;;;;-146.03;100.00;60875.16;4972436;28;45546;-81
2022/03/26 02:26:03;;;;;;;;;59.50;45.50;;;;;-146.03;100.00;60875.16;4972490;28;45474;-81
2022/03/26 02:28:29;;;;;;;;;54.00;43.25;;;;;-146.03;100.00;60875.16;4971196;28;45332;-80
2022/03/26 02:30:54;;;;;;;;;55.50;45.50;;;;;-146.03;100.00;60875.16;4969586;28;45512;-81
2022/03/26 02:33:20;;;;;;;;;52.25;42.25;;;;;-146.03;100.00;60875.16;4973473;28;45498;-81
2022/03/26 02:35:45;;;;;;;;;57.25;45.00;;;;;-146.03;100.00;60875.16;4974050;28;45415;-81
2022/03/26 02:38:10;;;;;;;;;56.75;43.50;;;;;-146.03;100.00;60875.16;4970095;28;45375;-81
2022/03/26 02:40:36;;;;;;;;;52.25;44.00;;;;;-146.03;100.00;60875.16;4976534;28;45631;-81
2022/03/26 02:43:02;;;;;;;;;54.75;44.00;;;;;-146.03;100.00;60875.16;4974160;28;47298;-81
2022/03/26 02:45:29;;;;;;;;;56.25;45.00;;;;;-146.03;100.00;60875.16;4973391;28;45430;-81
2022/03/26 02:47:55;;;;;;;;;59.50;45.75;;;;;-146.03;100.00;60875.16;4968979;28;45509;-81
2022/03/26 02:50:20;;;;;;;;;63.33;50.00;;;;;-146.03;100.00;60875.16;4976201;28;45518;-81
2022/03/26 02:52:48;;;;;;;;;68.00;53.00;;;;;-146.03;100.00;60875.16;4975911;28;45925;-81
2022/03/26 02:55:14;;;;;;;;;68.00;53.67;;;;;-146.03;100.00;60875.16;4972434;28;45411;-81
2022/03/26 02:57:39;;;;;;;;;63.67;49.00;;;;;-146.03;100.00;60875.16;4975069;28;45531;-81
2022/03/26 03:00:07;;;;;;;;;63.25;48.50;;;;;-146.03;100.00;60875.16;4974167;28;45807;-81
2022/03/26 03:02:34;;;;;;;;;53.50;44.25;;;;;-146.03;100.00;60875.16;4972695;28;45411;-79
2022/03/26 03:05:00;;;;;;;;;37.75;34.25;;;;;-146.03;100.00;60875.16;4970861;28;45469;-81
2022/03/26 03:07:25;;;;;;;;;56.25;45.00;;;;;-146.03;100.00;60875.16;4975659;28;46061;-80
2022/03/26 03:09:51;;;;;;;;;54.25;42.00;;;;;-146.03;100.00;60875.16;4969532;28;48586;-80
2022/03/26 03:12:16;;;;;;;;;51.75;43.50;;;;;-146.03;100.00;60875.16;4966365;28;46291;-80
2022/03/26 03:14:42;;;;;;;;;59.75;46.00;;;;;-146.03;100.00;60875.16;4965100;28;45470;-80
2022/03/26 03:17:07;;;;;;;;;53.50;45.00;;;;;-146.03;100.00;60875.16;4967458;28;45453;-81
2022/03/26 03:19:32;;;;;;;;;53.50;43.50;;;;;-146.03;100.00;60875.16;4961819;28;45443;-81
2022/03/26 03:21:58;;;;;;;;;54.00;45.75;;;;;-146.03;100.00;60875.16;4965161;28;48250;-80
2022/03/26 03:24:23;;;;;;;;;57.00;45.50;;;;;-146.03;100.00;60875.16;4967731;28;45518;-80
2022/03/26 03:26:49;;;;;;;;;52.00;41.50;;;;;-146.03;100.00;60875.16;4964866;28;45482;-80
2022/03/26 03:29:14;;;;;;;;;52.50;45.00;;;;;-146.03;100.00;60875.16;4969343;28;45371;-80
2022/03/26 03:31:44;;;;;;;;;57.00;45.25;;;;;-146.03;100.00;60875.16;4975854;28;45571;-80
2022/03/26 03:34:10;;;;;;;;;56.00;43.50;;;;;-146.03;100.00;60875.16;4969864;28;45503;-80
2022/03/26 03:36:35;;;;;;;;;39.50;33.25;;;;;-146.03;100.00;60875.16;4971449;28;45481;-80
2022/03/26 03:39:00;;;;;;;;;57.75;43.50;;;;;-146.03;100.00;60875.16;4966660;28;45404;-80
2022/03/26 03:41:26;;;;;;;;;57.50;46.25;;;;;-146.03;100.00;60875.16;4974175;28;45434;-81
2022/03/26 03:43:51;;;;;;;;;52.75;40.25;;;;;-146.03;100.00;60875.16;4969761;28;45416;-81
2022/03/26 03:46:16;;;;;;;;;48.50;40.50;;;;;-146.03;100.00;60875.16;4966500;28;45418;-81
2022/03/26 03:48:42;;;;;;;;;51.50;39.25;;;;;-146.03;100.00;60875.16;4969203;28;45392;-81
2022/03/26 03:51:07;;;;;;;;;59.00;44.25;;;;;-146.03;100.00;60875.16;4970045;28;46288;-80
2022/03/26 03:53:33;;;;;;;;;51.00;42.25;;;;;-146.03;100.00;60875.16;4974700;28;45414;-80
2022/03/26 03:55:58;;;;;;;;;46.50;38.00;;;;;-146.03;100.00;60875.16;4969349;28;45456;-80
2022/03/26 03:58:24;;;;;;;;;50.75;40.50;;;;;-146.03;100.00;60875.16;4970044;28;45471;-80
2022/03/26 04:00:49;;;;;;;;;53.25;43.00;;;;;-146.03;100.00;60875.16;4969781;28;46474;-80
2022/03/26 04:03:16;;;;;;;;;48.75;40.25;;;;;-146.03;100.00;60875.16;4968585;28;45430;-81
2022/03/26 04:05:43;;;;;;;;;53.00;41.75;;;;;-146.03;100.00;60875.16;4974791;28;46227;-80
2022/03/26 04:08:08;;;;;;;;;49.25;40.00;;;;;-146.03;100.00;60875.16;4970456;28;45419;-81
2022/03/26 04:10:34;;;;;;;;;52.75;42.00;;;;;-146.03;100.00;60875.16;4975209;28;45480;-80
2022/03/26 04:12:59;;;;;;;;;45.25;36.50;;;;;-146.03;100.00;60875.16;4965678;28;45454;-81
2022/03/26 04:15:25;;;;;;;;;50.25;40.75;;;;;-146.03;100.00;60875.16;4964192;28;45992;-80
2022/03/26 04:17:52;;;;;;;;;52.50;40.25;;;;;-146.03;100.00;60875.16;4975288;28;45383;-81
2022/03/26 04:20:17;;;;;;;;;45.75;38.75;;;;;-146.03;100.00;60875.16;4959525;28;48276;-81
2022/03/26 04:22:42;;;;;;;;;50.75;40.75;;;;;-146.03;100.00;60875.16;4961206;28;45662;-81
2022/03/26 04:25:09;;;;;;;;;51.50;42.00;;;;;-146.03;100.00;60875.16;4964541;28;45373;-80
2022/03/26 04:27:35;;;;;;;;;54.50;42.25;;;;;-146.03;100.00;60875.16;4962242;28;45515;-81
2022/03/26 04:30:00;;;;;;;;;54.00;41.25;;;;;-146.03;100.00;60875.16;4962424;28;46094;-81
2022/03/26 04:32:26;;;;;;;;;53.00;41.25;;;;;-146.03;100.00;60875.16;4959743;28;45370;-81
2022/03/26 04:34:51;;;;;;;;;60.00;45.75;;;;;-146.03;100.00;60875.16;4960101;28;45402;-81
2022/03/26 04:37:17;;;;;;;;;51.00;41.75;;;;;-146.03;100.00;60875.16;4961693;28;45447;-81
2022/03/26 04:39:43;;;;;;;;;50.00;41.50;;;;;-146.03;100.00;60875.16;4962372;28;45343;-81
2022/03/26 04:42:09;;;;;;;;;52.00;42.75;;;;;-146.03;100.00;60875.16;4961842;28;45495;-81
2022/03/26 04:44:34;;;;;;;;;48.00;38.00;;;;;-146.03;100.00;60875.16;4960213;28;45428;-81
2022/03/26 04:47:01;;;;;;;;;49.00;38.75;;;;;-146.03;100.00;60875.16;4959457;28;45277;-81
2022/03/26 04:49:26;;;;;;;;;55.75;41.75;;;;;-146.03;100.00;60875.16;4960773;28;46391;-81
2022/03/26 04:51:51;;;;;;;;;49.75;39.25;;;;;-146.03;100.00;60875.16;4961764;28;45383;-81
2022/03/26 04:54:17;;;;;;;;;52.75;42.75;;;;;-146.03;100.00;60875.16;4959112;28;45252;-81
2022/03/26 04:56:42;;;;;;;;;53.00;40.25;;;;;-146.03;100.00;60875.16;4958494;28;45619;-81
2022/03/26 04:59:07;;;;;;;;;52.25;42.50;;;;;-146.03;100.00;60875.16;4957813;28;45433;-81
2022/03/26 05:01:33;;;;;;;;;55.00;43.00;;;;;-146.03;100.00;60875.16;4956220;28;45269;-81
2022/03/26 05:03:58;;;;;;;;;56.25;43.25;;;;;-146.03;100.00;60875.16;4958789;28;45502;-80
2022/03/26 05:06:23;;;;;;;;;54.25;42.50;;;;;-146.03;100.00;60875.16;4958677;28;45344;-81
2022/03/26 05:08:49;;;;;;;;;49.75;41.00;;;;;-146.03;100.00;60875.16;4958571;28;45367;-80
2022/03/26 05:11:15;;;;;;;;;54.50;42.00;;;;;-146.03;100.00;60875.16;4957204;28;45566;-81
2022/03/26 05:13:40;;;;;;;;;52.50;42.00;;;;;-146.03;100.00;60875.16;4971851;28;45351;-81
2022/03/26 05:16:07;;;;;;;;;50.50;41.50;;;;;-146.03;100.00;60875.16;4959144;28;45557;-81
2022/03/26 05:18:33;;;;;;;;;48.00;39.75;;;;;-146.03;100.00;60875.16;4958555;28;45766;-80
2022/03/26 05:20:58;;;;;;;;;49.75;40.00;;;;;-146.03;100.00;60875.16;4958622;28;45573;-80
2022/03/26 05:23:25;;;;;;;;;53.50;41.50;;;;;-146.03;100.00;60875.16;4958553;28;45711;-81
2022/03/26 05:25:50;;;;;;;;;50.00;39.50;;;;;-146.03;100.00;60875.16;4954881;28;45626;-81
2022/03/26 05:28:16;;;;;;;;;51.25;40.75;;;;;-146.03;100.00;60875.16;4958092;28;45387;-80
2022/03/26 05:30:42;;;;;;;;;45.75;38.50;;;;;-146.03;100.00;60875.16;4958351;28;45574;-80
2022/03/26 05:33:08;;;;;;;;;53.75;41.25;;;;;-146.03;100.00;60875.16;4958753;28;45389;-81
2022/03/26 05:35:33;;;;;;;;;53.25;39.50;;;;;-146.03;100.00;60875.16;4957289;28;45569;-81
2022/03/26 05:38:00;;;;;;;;;51.50;39.50;;;;;-146.03;100.00;60875.16;4956055;28;51520;-81
2022/03/26 05:40:25;;;;;;;;;50.25;40.25;;;;;-146.03;100.00;60875.16;4960101;28;45371;-81
2022/03/26 05:42:51;;;;;;;;;52.50;41.75;;;;;-146.03;100.00;60875.16;4968283;28;45457;-81
2022/03/26 05:45:17;;;;;;;;;50.50;40.25;;;;;-146.03;100.00;60875.16;4965270;28;45413;-81
2022/03/26 05:47:43;;;;;;;;;48.50;40.50;;;;;-146.03;100.00;60875.16;4958177;28;47021;-81
2022/03/26 05:50:10;;;;;;;;;59.00;42.00;;;;;-146.03;100.00;60875.16;4956048;28;45473;-81
2022/03/26 05:52:36;;;;;;;;;45.75;38.50;;;;;-146.03;100.00;60875.16;4955427;28;45346;-81
2022/03/26 05:55:02;;;;;;;;;57.25;43.00;;;;;-146.03;100.00;60875.16;4956923;28;45578;-80
2022/03/26 05:57:27;;;;;;;;;51.50;42.50;;;;;-146.03;100.00;60875.16;4961224;28;45324;-81
2022/03/26 05:59:53;;;;;;;;;51.25;41.50;;;;;-146.03;100.00;60875.16;4960070;28;45514;-81
2022/03/26 06:02:18;;;;;;;;;22.25;16.75;;;;;-146.03;100.00;60875.16;4961449;28;52039;-80
2022/03/26 06:04:44;;;;;;;;;45.75;37.50;;;;;-146.03;100.00;60875.16;4959424;28;45451;-81
2022/03/26 06:07:10;;;;;;;;;52.00;40.00;;;;;-146.03;100.00;60875.16;4964074;28;46886;-80
2022/03/26 06:09:36;;;;;;;;;47.25;36.50;;;;;-146.03;100.00;60875.16;4963685;28;45342;-80
2022/03/26 06:12:03;;;;;;;;;51.50;39.25;;;;;-146.03;100.00;60875.16;4964336;28;45494;-80
2022/03/26 06:14:29;;;;;;;;;46.75;36.75;;;;;-146.03;100.00;60875.16;4961752;28;45574;-81
2022/03/26 06:16:55;;;;;;;;;51.75;39.25;;;;;-146.03;100.00;60875.16;4961571;28;45395;-81
2022/03/26 06:19:20;;;;;;;;;51.00;38.75;;;;;-146.03;100.00;60875.16;4963439;28;45567;-80
2022/03/26 06:21:45;;;;;;;;;49.00;39.75;;;;;-146.03;100.00;60875.16;4970423;28;45546;-81
2022/03/26 06:24:11;;;;;;;;;46.25;36.50;;;;;-146.03;100.00;60875.16;4968319;28;47903;-80
2022/03/26 06:26:37;;;;;;;;;48.25;38.25;;;;;-146.03;100.00;60875.16;4960823;28;46146;-81
2022/03/26 06:29:04;;;;;;;;;51.75;41.75;;;;;-146.03;100.00;60875.16;4959440;28;45308;-81
2022/03/26 06:31:29;;;;;;;;;45.00;39.00;;;;;-146.03;100.00;60875.16;4960288;28;45396;-81
2022/03/26 06:33:55;;;;;;;;;42.00;37.50;;;;;-146.03;100.00;60875.16;4960867;28;45356;-81
2022/03/26 06:36:21;;;;;;;;;54.50;41.25;;;;;-146.03;100.00;60875.16;4963414;28;45858;-81
2022/03/26 06:38:48;;;;;;;;;52.50;41.50;;;;;-146.03;100.00;60875.16;4963289;28;45511;-81
2022/03/26 06:41:15;;;;;;;;;50.00;41.50;;;;;-146.03;100.00;60875.16;4960934;28;45407;-81
2022/03/26 06:43:42;;;;;;;;;56.00;42.75;;;;;-146.03;100.00;60875.16;4974086;28;45454;-80
2022/03/26 06:46:08;;;;;;;;;45.50;37.00;;;;;-146.03;100.00;60875.16;4961009;28;45422;-80
2022/03/26 06:48:33;;;;;;;;;53.50;40.75;;;;;-146.03;100.00;60875.16;4960611;28;45777;-81
2022/03/26 06:51:02;;;;;;;;;56.25;41.00;;;;;-146.03;100.00;60875.16;4961131;28;45273;-81
2022/03/26 06:53:29;;;;;;;;;51.50;40.50;;;;;-146.03;100.00;60875.16;4960610;28;45587;-81
2022/03/26 06:55:55;;;;;;;;;55.50;43.50;;;;;-146.03;100.00;60875.16;4958584;28;45596;-81
2022/03/26 06:58:20;;;;;;;;;54.00;37.50;;;;;-146.03;100.00;60875.16;4960327;28;45651;-80
2022/03/26 07:00:45;;;;;;;;;57.75;44.75;;;;;-146.03;100.00;60875.16;4963049;28;46025;-80
2022/03/26 07:03:11;;;;;;;;;56.50;42.50;;;;;-146.03;100.00;60875.16;4967641;28;45505;-82
2022/03/26 07:05:37;;;;;;;;;53.50;41.50;;;;;-146.03;100.00;60875.16;4974073;28;46297;-80
2022/03/26 07:08:03;;;;;;;;;37.00;30.75;;;;;-146.03;100.00;60875.16;4957730;28;45522;-80
2022/03/26 07:10:28;;;;;;;;;51.50;41.75;;;;;-146.03;100.00;60875.16;4968639;28;45498;-81
2022/03/26 07:12:53;;;;;;;;;53.75;43.50;;;;;-146.03;100.00;60875.16;4971991;28;45486;-80
2022/03/26 07:15:19;;;;;;;;;51.25;41.75;;;;;-146.03;100.00;60875.16;4968568;28;45472;-82
2022/03/26 07:17:44;;;;;;;;;55.00;43.00;;;;;-146.03;100.00;60875.16;4971060;28;54445;-81
2022/03/26 07:20:11;;;;;;;;;54.00;43.75;;;;;-146.03;100.00;60875.16;4975293;28;45475;-82
2022/03/26 07:22:37;;;;;;;;;54.25;42.75;;;;;-146.03;100.00;60875.16;4963931;28;45589;-82
2022/03/26 07:25:04;;;;;;;;;55.75;43.25;;;;;-146.03;100.00;60875.16;4973543;28;46712;-81
2022/03/26 07:27:32;;;;;;;;;52.00;42.50;;;;;-146.03;100.00;60875.16;4970947;28;45392;-82
2022/03/26 07:29:58;;;;;;;;;48.75;39.75;;;;;-146.03;100.00;60875.16;4960279;28;45437;-82
2022/03/26 07:32:23;;;;;;;;;58.25;45.50;;;;;-146.03;100.00;60875.16;4971230;28;45562;-82
2022/03/26 07:34:49;;;;;;;;;54.00;44.00;;;;;-146.03;100.00;60875.16;4960521;28;45372;-82
2022/03/26 07:37:14;;;;;;;;;53.00;41.75;;;;;-146.03;100.00;60875.16;4962195;28;49775;-82
2022/03/26 07:39:40;;;;;;;;;52.75;43.00;;;;;-146.03;100.00;60875.16;4966364;28;45469;-81
2022/03/26 07:42:06;;;;;;;;;50.75;41.25;;;;;-146.03;100.00;60875.16;4974190;28;45533;-82
2022/03/26 07:44:32;;;;;;;;;54.00;42.50;;;;;-146.03;100.00;60875.16;4957318;28;46600;-82
2022/03/26 07:46:57;;;;;;;;;57.75;45.25;;;;;-146.03;100.00;60875.16;4966970;28;50211;-82
2022/03/26 07:49:22;;;;;;;;;53.75;40.75;;;;;-146.03;100.00;60875.16;4971157;28;45422;-82
2022/03/26 07:51:48;;;;;;;;;51.00;43.00;;;;;-146.03;100.00;60875.16;4964396;28;45565;-81
2022/03/26 07:54:13;;;;;;;;;49.50;38.50;;;;;-146.03;100.00;60875.16;4961299;28;46222;-81
2022/03/26 07:56:38;;;;;;;;;57.00;45.50;;;;;-146.03;100.00;60875.16;4960876;28;45620;-81
2022/03/26 07:59:04;;;;;;;;;47.00;38.75;;;;;-146.03;100.00;60875.16;4967247;28;45844;-81
2022/03/26 08:01:29;;;;;;;;;45.00;37.25;;;;;-146.03;100.00;60875.16;4965005;28;45413;-81
2022/03/26 08:03:55;;;;;;;;;51.00;42.25;;;;;-146.03;100.00;60875.16;4966101;28;47412;-82
2022/03/26 08:06:22;;;;;;;;;41.50;35.00;;;;;-146.03;100.00;60875.16;4972005;28;45462;-82
2022/03/26 08:08:47;;;;;;;;;46.50;37.75;;;;;-146.03;100.00;60875.16;4972384;28;45377;-81
2022/03/26 08:11:12;;;;;;;;;45.00;38.50;;;;;-146.03;100.00;60875.16;4964642;28;45499;-82
2022/03/26 08:13:38;;;;;;;;;52.75;37.50;;;;;-146.03;100.00;60875.16;4966923;28;45355;-81
2022/03/26 08:16:04;;;;;;;;;41.50;32.50;;;;;-146.03;100.00;60875.16;4965432;28;45517;-81
2022/03/26 08:18:30;;;;;;;;;48.50;37.75;;;;;-146.03;100.00;60875.16;4962194;28;45376;-82
2022/03/26 08:20:56;;;;;;;;;50.75;42.25;;;;;-146.03;100.00;60875.16;4963802;28;45512;-88
2022/03/26 08:23:21;;;;;;;;;48.00;39.50;;;;;-146.03;100.00;60875.16;4972279;28;45295;-79
2022/03/26 08:28:31;;;;;;;;;50.75;41.25;;;;;-146.03;100.00;60875.16;4963260;28;45620;-79
2022/03/26 08:30:56;;;;;;;;;7.75;4.25;;;;;-146.03;100.00;60875.16;4956395;28;45589;-79
2022/03/26 08:33:22;;;;;;;;;43.25;34.50;;;;;-146.03;100.00;60875.16;4960474;28;46830;-79
2022/03/26 08:35:47;;;;;;;;;49.00;39.00;;;;;-146.03;100.00;60875.16;4972356;28;45514;-79
2022/03/26 08:38:12;;;;;;;;;48.75;38.25;;;;;-146.03;100.00;60875.16;4968915;28;45354;-79
2022/03/26 08:40:38;;;;;;;;;48.75;39.75;;;;;-146.03;100.00;60875.16;4965536;28;45338;-79
2022/03/26 08:43:06;;;;;;;;;48.00;39.25;;;;;-146.03;100.00;60875.16;4968647;28;46027;-79
2022/03/26 08:45:32;;;;;;;;;49.75;40.75;;;;;-146.03;100.00;60875.16;4969862;28;45500;-79
2022/03/26 08:47:58;;;;;;;;;47.00;37.00;;;;;-146.03;100.00;60875.16;4965062;28;45470;-78
2022/03/26 08:50:24;;;;;;;;;43.25;37.75;;;;;-146.03;100.00;60875.16;4969704;28;45461;-79
2022/03/26 08:52:49;;;;;;;;;47.50;40.25;;;;;-146.03;100.00;60875.16;4956117;28;45586;-79
2022/03/26 08:55:16;;;;;;;;;45.50;37.25;;;;;-146.03;100.00;60875.16;4961028;28;45950;-79
2022/03/26 08:57:42;;;;;;;;;47.00;38.50;;;;;-146.03;100.00;60875.16;4963932;28;45498;-79
2022/03/26 09:00:10;;;;;;;;;46.50;38.00;;;;;-146.03;100.00;60875.16;4967541;28;45589;-79
2022/03/26 09:02:35;;;;;;;;;49.50;40.75;;;;;-146.03;100.00;60875.16;4962026;28;46633;-79
2022/03/26 09:05:01;;;;;;;;;46.50;37.25;;;;;-146.03;100.00;60875.16;4957540;28;45563;-79
2022/03/26 09:07:26;;;;;;;;;50.00;39.50;;;;;-146.03;100.00;60875.16;4962568;28;45506;-79
2022/03/26 09:09:52;;;;;;;;;53.25;42.00;;;;;-146.03;100.00;60875.16;4964406;28;46254;-79
2022/03/26 09:12:17;;;;;;;;;49.00;39.50;;;;;-146.03;100.00;60875.16;4956406;28;46205;-79
2022/03/26 09:14:43;;;;;;;;;45.75;36.25;;;;;-146.03;100.00;60875.16;4958709;28;45445;-79
2022/03/26 09:17:09;;;;;;;;;45.75;36.75;;;;;-146.03;100.00;60875.16;4956967;28;45489;-80
2022/03/26 09:19:36;;;;;;;;;44.50;36.00;;;;;-146.03;100.00;60875.16;4961414;28;45530;-79
2022/03/26 09:22:01;;;;;;;;;54.25;42.75;;;;;-146.03;100.00;60875.16;4959471;28;45438;-79
2022/03/26 09:24:26;;;;;;;;;45.75;38.50;;;;;-146.03;100.00;60875.16;4958477;28;45486;-79
2022/03/26 09:26:52;;;;;;;;;48.00;38.75;;;;;-146.03;100.00;60875.16;4960082;28;45477;-79
2022/03/26 09:29:17;;;;;;;;;47.25;38.25;;;;;-146.03;100.00;60875.16;4957263;28;45381;-79
2022/03/26 09:31:43;;;;;;;;;51.00;40.00;;;;;-146.03;100.00;60875.16;4962727;28;45346;-78
2022/03/26 09:34:08;;;;;;;;;48.75;39.75;;;;;-146.03;100.00;60875.16;4964585;28;45375;-79
2022/03/26 09:36:33;;;;;;;;;48.00;36.50;;;;;-146.03;100.00;60875.16;4964549;28;45286;-79
2022/03/26 09:38:59;;;;;;;;;48.50;38.50;;;;;-146.03;100.00;60875.16;4964738;28;45352;-78
2022/03/26 09:41:27;;;;;;;;;43.50;36.00;;;;;-146.03;100.00;60875.16;4961400;28;46329;-79
2022/03/26 09:43:54;;;;;;;;;48.25;37.75;;;;;-146.03;100.00;60875.16;4962182;28;45296;-79
2022/03/26 09:46:20;;;;;;;;;46.25;40.00;;;;;-146.03;100.00;60875.16;4962621;28;45571;-78
2022/03/26 09:48:45;;;;;;;;;46.75;39.75;;;;;-146.03;100.00;60875.16;4964361;28;45481;-79
2022/03/26 09:51:13;;;;;;;;;47.75;39.00;;;;;-146.03;100.00;60875.16;4964094;28;46121;-79
2022/03/26 09:53:40;;;;;;;;;49.75;40.25;;;;;-146.03;100.00;60875.16;4963414;28;45408;-79
2022/03/26 09:56:06;;;;;;;;;49.50;40.50;;;;;-146.03;100.00;60875.16;4961063;28;45472;-79
2022/03/26 09:58:32;;;;;;;;;48.75;39.75;;;;;-146.03;100.00;60875.16;4963506;28;45499;-79
2022/03/26 10:00:57;;;;;;;;;49.50;39.25;;;;;-146.03;100.00;60875.16;4964101;28;45538;-79
2022/03/26 10:03:22;;;;;;;;;48.75;40.50;;;;;-146.03;100.00;60875.16;4964037;28;45553;-79
2022/03/26 10:05:48;;;;;;;;;49.00;39.00;;;;;-146.03;100.00;60875.16;4964261;28;45371;-79
2022/03/26 10:08:20;;;;;;;;;54.25;42.00;;;;;-146.03;100.00;60875.16;4960175;28;45410;-79
2022/03/26 10:10:47;;;;;;;;;40.75;35.00;;;;;-146.03;100.00;60875.16;4974027;28;45435;-79
2022/03/26 10:13:33;;;;;;;;;50.50;40.00;;;;;-146.03;100.00;60875.16;4960020;28;45476;-79
2022/03/26 10:16:04;;;;;;;;;51.50;39.75;;;;;-146.03;100.00;60875.16;4960742;28;45313;-78
2022/03/26 10:18:33;;;;;;;;;48.00;38.75;;;;;-146.03;100.00;60875.16;4958995;28;45518;-78
2022/03/26 10:20:59;;;;;;;;;42.50;37.75;;;;;-146.03;100.00;60875.16;4959334;28;48476;-78
2022/03/26 10:23:29;;;;;;;;;48.25;39.75;;;;;-146.03;100.00;60875.16;4960752;28;45466;-79
2022/03/26 10:26:26;;;;;;;;;46.75;39.50;;;;;-146.03;100.00;60875.16;4957393;28;45392;-79
2022/03/26 10:28:54;;;;;;;;;45.75;38.25;;;;;-146.03;100.00;60875.16;4955516;28;45561;-78
2022/03/26 10:34:19;;;;;;;;;50.75;42.00;;;;;-146.03;100.00;60875.16;4966575;28;45743;-79
2022/03/26 10:36:56;;;;;;;;;55.00;43.25;;;;;-146.03;100.00;60875.16;4967015;28;45636;-79
2022/03/26 10:39:25;;;;;;;;;52.50;43.00;;;;;-146.03;100.00;60875.16;4974043;28;45340;-79
2022/03/26 10:41:54;;;;;;;;;51.00;43.25;;;;;-146.03;100.00;60875.16;4974323;28;45441;-79
2022/03/26 10:44:25;;;;;;;;;47.50;39.75;;;;;-146.03;100.00;60875.16;4974476;28;45558;-79
2022/03/26 10:46:56;;;;;;;;;52.25;42.00;;;;;-146.03;100.00;60875.16;4973227;28;45474;-78
2022/03/26 10:49:33;;;;;;;;;57.00;40.00;;;;;-146.03;100.00;60875.16;4970867;28;45185;-79
2022/03/26 10:52:11;;;;;;;;;48.00;39.50;;;;;-146.03;100.00;60875.16;4974516;28;47571;-79
2022/03/26 10:54:36;;;;;;;;;46.50;39.25;;;;;-146.03;100.00;60875.16;4974394;28;45378;-79
2022/03/26 10:57:02;;;;;;;;;44.25;35.25;;;;;-146.03;100.00;60875.16;4972030;28;56054;-79